sensor_id;sensor_type;location;lat;lon;timestamp;P1;durP1;ratioP1;P2;durP2;ratioP2
21215;SDS011;10765;50.954;5.322;2022-10-31T00:00:13;22.33;;;18.20;;
21215;SDS011;10765;50.954;5.322;2022-10-31T00:02:40;20.17;;;16.60;;
21215;SDS011;10765;50.954;5.322;2022-10-31T00:05:09;21.33;;;19.10;;
21215;SDS011;10765;50.954;5.322;2022-10-31T00:07:38;23.13;;;18.80;;
21215;SDS011;10765;50.954;5.322;2022-10-31T00:10:05;20.03;;;16.43;;
21215;SDS011;10765;50.954;5.322;2022-10-31T00:12:33;21.33;;;16.50;;
21215;SDS011;10765;50.954;5.322;2022-10-31T00:15:00;19.37;;;16.73;;
21215;SDS011;10765;50.954;5.322;2022-10-31T00:17:27;20.80;;;17.77;;
21215;SDS011;10765;50.954;5.322;2022-10-31T00:19:54;22.10;;;17.53;;
21215;SDS011;10765;50.954;5.322;2022-10-31T00:22:23;18.70;;;15.73;;
21215;SDS011;10765;50.954;5.322;2022-10-31T00:24:50;17.70;;;14.90;;
21215;SDS011;10765;50.954;5.322;2022-10-31T00:27:17;20.73;;;17.10;;
21215;SDS011;10765;50.954;5.322;2022-10-31T00:29:44;18.17;;;15.93;;
21215;SDS011;10765;50.954;5.322;2022-10-31T00:32:11;18.50;;;16.43;;
21215;SDS011;10765;50.954;5.322;2022-10-31T00:34:38;16.97;;;15.27;;
21215;SDS011;10765;50.954;5.322;2022-10-31T00:37:06;18.30;;;15.10;;
21215;SDS011;10765;50.954;5.322;2022-10-31T00:39:34;15.73;;;14.13;;
21215;SDS011;10765;50.954;5.322;2022-10-31T00:42:01;22.13;;;17.70;;
21215;SDS011;10765;50.954;5.322;2022-10-31T00:44:28;19.37;;;17.27;;
21215;SDS011;10765;50.954;5.322;2022-10-31T00:46:55;18.07;;;15.57;;
21215;SDS011;10765;50.954;5.322;2022-10-31T00:49:21;20.40;;;17.00;;
21215;SDS011;10765;50.954;5.322;2022-10-31T00:51:48;20.57;;;16.87;;
21215;SDS011;10765;50.954;5.322;2022-10-31T00:54:15;17.63;;;15.80;;
21215;SDS011;10765;50.954;5.322;2022-10-31T00:56:43;19.57;;;15.73;;
21215;SDS011;10765;50.954;5.322;2022-10-31T00:59:10;17.93;;;15.87;;
21215;SDS011;10765;50.954;5.322;2022-10-31T01:01:37;19.50;;;16.83;;
21215;SDS011;10765;50.954;5.322;2022-10-31T01:04:04;19.47;;;17.37;;
21215;SDS011;10765;50.954;5.322;2022-10-31T01:06:31;24.37;;;18.30;;
21215;SDS011;10765;50.954;5.322;2022-10-31T01:08:58;20.83;;;18.10;;
21215;SDS011;10765;50.954;5.322;2022-10-31T01:11:24;24.87;;;18.87;;
21215;SDS011;10765;50.954;5.322;2022-10-31T01:13:53;20.20;;;18.10;;
21215;SDS011;10765;50.954;5.322;2022-10-31T01:16:21;21.00;;;18.13;;
21215;SDS011;10765;50.954;5.322;2022-10-31T01:18:49;17.40;;;15.37;;
21215;SDS011;10765;50.954;5.322;2022-10-31T01:21:18;19.57;;;17.57;;
21215;SDS011;10765;50.954;5.322;2022-10-31T01:23:46;19.83;;;16.80;;
21215;SDS011;10765;50.954;5.322;2022-10-31T01:26:14;20.53;;;17.47;;
21215;SDS011;10765;50.954;5.322;2022-10-31T01:28:43;25.17;;;20.13;;
21215;SDS011;10765;50.954;5.322;2022-10-31T01:31:13;24.17;;;20.63;;
21215;SDS011;10765;50.954;5.322;2022-10-31T01:33:41;30.47;;;22.93;;
21215;SDS011;10765;50.954;5.322;2022-10-31T01:36:12;22.03;;;18.93;;
21215;SDS011;10765;50.954;5.322;2022-10-31T01:38:41;29.07;;;22.57;;
21215;SDS011;10765;50.954;5.322;2022-10-31T01:41:08;28.47;;;22.07;;
21215;SDS011;10765;50.954;5.322;2022-10-31T01:43:42;28.30;;;23.43;;
21215;SDS011;10765;50.954;5.322;2022-10-31T01:46:16;31.70;;;25.40;;
21215;SDS011;10765;50.954;5.322;2022-10-31T01:48:46;23.87;;;21.40;;
21215;SDS011;10765;50.954;5.322;2022-10-31T01:51:14;26.87;;;23.10;;
21215;SDS011;10765;50.954;5.322;2022-10-31T01:53:43;31.80;;;23.77;;
21215;SDS011;10765;50.954;5.322;2022-10-31T01:56:13;24.73;;;21.97;;
21215;SDS011;10765;50.954;5.322;2022-10-31T01:58:42;28.17;;;22.67;;
21215;SDS011;10765;50.954;5.322;2022-10-31T02:01:12;24.53;;;21.97;;
21215;SDS011;10765;50.954;5.322;2022-10-31T02:03:42;32.57;;;22.63;;
21215;SDS011;10765;50.954;5.322;2022-10-31T02:06:10;57.70;;;21.17;;
21215;SDS011;10765;50.954;5.322;2022-10-31T02:08:44;22.67;;;19.87;;
21215;SDS011;10765;50.954;5.322;2022-10-31T02:11:12;23.57;;;17.57;;
21215;SDS011;10765;50.954;5.322;2022-10-31T02:13:40;18.30;;;16.40;;
21215;SDS011;10765;50.954;5.322;2022-10-31T02:16:08;17.47;;;15.27;;
21215;SDS011;10765;50.954;5.322;2022-10-31T02:18:35;20.60;;;16.47;;
21215;SDS011;10765;50.954;5.322;2022-10-31T02:21:06;21.57;;;16.40;;
21215;SDS011;10765;50.954;5.322;2022-10-31T02:27:19;19.10;;;17.03;;
21215;SDS011;10765;50.954;5.322;2022-10-31T02:32:54;21.87;;;17.57;;
21215;SDS011;10765;50.954;5.322;2022-10-31T02:35:40;17.97;;;15.23;;
21215;SDS011;10765;50.954;5.322;2022-10-31T02:38:25;18.00;;;16.13;;
21215;SDS011;10765;50.954;5.322;2022-10-31T02:41:06;17.37;;;15.60;;
21215;SDS011;10765;50.954;5.322;2022-10-31T02:43:42;19.13;;;17.20;;
21215;SDS011;10765;50.954;5.322;2022-10-31T02:46:17;18.13;;;15.70;;
21215;SDS011;10765;50.954;5.322;2022-10-31T02:48:52;15.40;;;13.90;;
21215;SDS011;10765;50.954;5.322;2022-10-31T02:51:23;17.03;;;14.63;;
21215;SDS011;10765;50.954;5.322;2022-10-31T02:53:50;15.43;;;12.80;;
21215;SDS011;10765;50.954;5.322;2022-10-31T02:56:17;10.10;;;8.80;;
21215;SDS011;10765;50.954;5.322;2022-10-31T02:58:46;17.87;;;16.07;;
21215;SDS011;10765;50.954;5.322;2022-10-31T03:04:28;20.07;;;17.63;;
21215;SDS011;10765;50.954;5.322;2022-10-31T03:07:16;20.23;;;18.03;;
21215;SDS011;10765;50.954;5.322;2022-10-31T03:09:52;19.60;;;15.37;;
21215;SDS011;10765;50.954;5.322;2022-10-31T03:12:29;211.23;;;36.13;;
21215;SDS011;10765;50.954;5.322;2022-10-31T03:15:05;29.70;;;21.40;;
21215;SDS011;10765;50.954;5.322;2022-10-31T03:17:41;17.43;;;15.57;;
21215;SDS011;10765;50.954;5.322;2022-10-31T03:20:18;25.17;;;20.73;;
21215;SDS011;10765;50.954;5.322;2022-10-31T03:22:50;39.27;;;21.03;;
21215;SDS011;10765;50.954;5.322;2022-10-31T03:25:18;28.47;;;23.97;;
21215;SDS011;10765;50.954;5.322;2022-10-31T03:27:45;28.50;;;22.17;;
21215;SDS011;10765;50.954;5.322;2022-10-31T03:30:13;23.97;;;21.37;;
21215;SDS011;10765;50.954;5.322;2022-10-31T03:32:43;30.90;;;24.47;;
21215;SDS011;10765;50.954;5.322;2022-10-31T03:35:13;27.27;;;22.50;;
21215;SDS011;10765;50.954;5.322;2022-10-31T03:37:44;31.03;;;25.00;;
21215;SDS011;10765;50.954;5.322;2022-10-31T03:40:12;26.90;;;23.60;;
21215;SDS011;10765;50.954;5.322;2022-10-31T03:42:42;31.43;;;23.83;;
21215;SDS011;10765;50.954;5.322;2022-10-31T03:45:17;30.80;;;23.73;;
21215;SDS011;10765;50.954;5.322;2022-10-31T03:47:49;27.17;;;23.13;;
21215;SDS011;10765;50.954;5.322;2022-10-31T03:50:17;33.13;;;24.93;;
21215;SDS011;10765;50.954;5.322;2022-10-31T03:52:47;24.40;;;20.80;;
21215;SDS011;10765;50.954;5.322;2022-10-31T03:55:19;28.47;;;23.30;;
21215;SDS011;10765;50.954;5.322;2022-10-31T03:57:52;23.57;;;20.57;;
21215;SDS011;10765;50.954;5.322;2022-10-31T04:00:24;23.67;;;19.43;;
21215;SDS011;10765;50.954;5.322;2022-10-31T04:02:51;23.13;;;20.00;;
21215;SDS011;10765;50.954;5.322;2022-10-31T04:05:23;19.23;;;16.37;;
21215;SDS011;10765;50.954;5.322;2022-10-31T04:07:53;16.93;;;15.00;;
21215;SDS011;10765;50.954;5.322;2022-10-31T04:10:22;22.80;;;17.50;;
21215;SDS011;10765;50.954;5.322;2022-10-31T04:12:53;19.30;;;17.20;;
21215;SDS011;10765;50.954;5.322;2022-10-31T04:15:23;31.00;;;25.00;;
21215;SDS011;10765;50.954;5.322;2022-10-31T04:17:52;28.57;;;22.87;;
21215;SDS011;10765;50.954;5.322;2022-10-31T04:20:29;24.33;;;20.60;;
21215;SDS011;10765;50.954;5.322;2022-10-31T04:22:58;19.93;;;17.83;;
21215;SDS011;10765;50.954;5.322;2022-10-31T04:25:26;25.90;;;22.50;;
21215;SDS011;10765;50.954;5.322;2022-10-31T04:27:53;27.17;;;22.77;;
21215;SDS011;10765;50.954;5.322;2022-10-31T04:30:19;28.20;;;23.53;;
21215;SDS011;10765;50.954;5.322;2022-10-31T04:32:46;23.97;;;21.27;;
21215;SDS011;10765;50.954;5.322;2022-10-31T04:35:13;27.67;;;24.03;;
21215;SDS011;10765;50.954;5.322;2022-10-31T04:37:41;30.53;;;23.07;;
21215;SDS011;10765;50.954;5.322;2022-10-31T04:40:10;29.50;;;23.10;;
21215;SDS011;10765;50.954;5.322;2022-10-31T04:42:37;32.73;;;23.47;;
21215;SDS011;10765;50.954;5.322;2022-10-31T04:45:04;30.60;;;23.83;;
21215;SDS011;10765;50.954;5.322;2022-10-31T04:47:32;32.80;;;24.17;;
21215;SDS011;10765;50.954;5.322;2022-10-31T04:49:59;34.43;;;24.33;;
21215;SDS011;10765;50.954;5.322;2022-10-31T04:52:27;29.07;;;23.63;;
21215;SDS011;10765;50.954;5.322;2022-10-31T04:54:54;21.37;;;18.80;;
21215;SDS011;10765;50.954;5.322;2022-10-31T04:57:22;17.83;;;15.37;;
21215;SDS011;10765;50.954;5.322;2022-10-31T04:59:49;27.37;;;21.73;;
21215;SDS011;10765;50.954;5.322;2022-10-31T05:02:16;23.43;;;19.93;;
21215;SDS011;10765;50.954;5.322;2022-10-31T05:04:43;20.50;;;17.33;;
21215;SDS011;10765;50.954;5.322;2022-10-31T05:07:10;18.97;;;16.63;;
21215;SDS011;10765;50.954;5.322;2022-10-31T05:09:36;18.47;;;15.73;;
21215;SDS011;10765;50.954;5.322;2022-10-31T05:12:03;22.00;;;17.83;;
21215;SDS011;10765;50.954;5.322;2022-10-31T05:14:32;22.20;;;18.87;;
21215;SDS011;10765;50.954;5.322;2022-10-31T05:16:58;18.27;;;15.40;;
21215;SDS011;10765;50.954;5.322;2022-10-31T05:19:25;21.53;;;17.80;;
21215;SDS011;10765;50.954;5.322;2022-10-31T05:21:52;22.27;;;17.47;;
21215;SDS011;10765;50.954;5.322;2022-10-31T05:24:22;21.17;;;16.30;;
21215;SDS011;10765;50.954;5.322;2022-10-31T05:26:49;20.93;;;16.30;;
21215;SDS011;10765;50.954;5.322;2022-10-31T05:29:16;24.27;;;19.47;;
21215;SDS011;10765;50.954;5.322;2022-10-31T05:31:44;27.67;;;21.40;;
21215;SDS011;10765;50.954;5.322;2022-10-31T05:34:11;26.77;;;21.37;;
21215;SDS011;10765;50.954;5.322;2022-10-31T05:36:37;28.33;;;21.10;;
21215;SDS011;10765;50.954;5.322;2022-10-31T05:39:04;26.90;;;23.10;;
21215;SDS011;10765;50.954;5.322;2022-10-31T05:41:31;24.73;;;19.60;;
21215;SDS011;10765;50.954;5.322;2022-10-31T05:43:58;30.50;;;22.33;;
21215;SDS011;10765;50.954;5.322;2022-10-31T05:46:25;24.90;;;20.30;;
21215;SDS011;10765;50.954;5.322;2022-10-31T05:48:53;22.87;;;19.53;;
21215;SDS011;10765;50.954;5.322;2022-10-31T05:51:20;25.03;;;19.87;;
21215;SDS011;10765;50.954;5.322;2022-10-31T05:53:47;23.80;;;19.90;;
21215;SDS011;10765;50.954;5.322;2022-10-31T05:56:14;26.30;;;20.13;;
21215;SDS011;10765;50.954;5.322;2022-10-31T05:58:40;26.17;;;21.13;;
21215;SDS011;10765;50.954;5.322;2022-10-31T06:01:07;23.27;;;19.87;;
21215;SDS011;10765;50.954;5.322;2022-10-31T06:03:34;19.47;;;17.37;;
21215;SDS011;10765;50.954;5.322;2022-10-31T06:06:02;23.90;;;20.33;;
21215;SDS011;10765;50.954;5.322;2022-10-31T06:08:30;22.77;;;20.47;;
21215;SDS011;10765;50.954;5.322;2022-10-31T06:10:56;26.57;;;21.87;;
21215;SDS011;10765;50.954;5.322;2022-10-31T06:13:23;24.10;;;18.90;;
21215;SDS011;10765;50.954;5.322;2022-10-31T06:15:50;25.53;;;20.80;;
21215;SDS011;10765;50.954;5.322;2022-10-31T06:18:17;25.80;;;20.47;;
21215;SDS011;10765;50.954;5.322;2022-10-31T06:20:44;25.07;;;21.50;;
21215;SDS011;10765;50.954;5.322;2022-10-31T06:23:12;23.43;;;20.93;;
21215;SDS011;10765;50.954;5.322;2022-10-31T06:25:39;27.83;;;22.27;;
21215;SDS011;10765;50.954;5.322;2022-10-31T06:28:06;24.33;;;21.30;;
21215;SDS011;10765;50.954;5.322;2022-10-31T06:30:33;22.10;;;19.23;;
21215;SDS011;10765;50.954;5.322;2022-10-31T06:33:03;22.90;;;19.27;;
21215;SDS011;10765;50.954;5.322;2022-10-31T06:35:31;25.00;;;21.93;;
21215;SDS011;10765;50.954;5.322;2022-10-31T06:37:58;26.37;;;22.07;;
21215;SDS011;10765;50.954;5.322;2022-10-31T06:40:26;28.03;;;23.23;;
21215;SDS011;10765;50.954;5.322;2022-10-31T06:42:57;30.77;;;23.63;;
21215;SDS011;10765;50.954;5.322;2022-10-31T06:45:24;23.87;;;19.80;;
21215;SDS011;10765;50.954;5.322;2022-10-31T06:47:51;42.13;;;20.10;;
21215;SDS011;10765;50.954;5.322;2022-10-31T06:50:19;22.03;;;19.70;;
21215;SDS011;10765;50.954;5.322;2022-10-31T06:52:49;18.77;;;16.87;;
21215;SDS011;10765;50.954;5.322;2022-10-31T06:55:19;22.87;;;19.43;;
21215;SDS011;10765;50.954;5.322;2022-10-31T06:57:52;20.40;;;18.30;;
21215;SDS011;10765;50.954;5.322;2022-10-31T07:00:19;26.50;;;21.53;;
21215;SDS011;10765;50.954;5.322;2022-10-31T07:02:53;22.67;;;18.87;;
21215;SDS011;10765;50.954;5.322;2022-10-31T07:05:21;22.67;;;20.23;;
21215;SDS011;10765;50.954;5.322;2022-10-31T07:07:51;16.37;;;14.67;;
21215;SDS011;10765;50.954;5.322;2022-10-31T07:10:19;19.90;;;17.63;;
21215;SDS011;10765;50.954;5.322;2022-10-31T07:12:46;19.23;;;17.33;;
21215;SDS011;10765;50.954;5.322;2022-10-31T07:15:14;19.67;;;17.83;;
21215;SDS011;10765;50.954;5.322;2022-10-31T07:17:41;26.70;;;22.27;;
21215;SDS011;10765;50.954;5.322;2022-10-31T07:20:08;22.77;;;20.17;;
21215;SDS011;10765;50.954;5.322;2022-10-31T07:22:36;23.67;;;19.43;;
21215;SDS011;10765;50.954;5.322;2022-10-31T07:25:04;25.87;;;18.90;;
21215;SDS011;10765;50.954;5.322;2022-10-31T07:27:34;31.00;;;18.80;;
21215;SDS011;10765;50.954;5.322;2022-10-31T07:30:02;30.63;;;19.73;;
21215;SDS011;10765;50.954;5.322;2022-10-31T07:32:38;27.63;;;20.93;;
21215;SDS011;10765;50.954;5.322;2022-10-31T07:35:05;21.70;;;17.93;;
21215;SDS011;10765;50.954;5.322;2022-10-31T07:37:33;31.20;;;20.93;;
21215;SDS011;10765;50.954;5.322;2022-10-31T07:40:00;24.47;;;19.40;;
21215;SDS011;10765;50.954;5.322;2022-10-31T07:42:27;22.07;;;18.73;;
21215;SDS011;10765;50.954;5.322;2022-10-31T07:44:54;30.67;;;22.27;;
21215;SDS011;10765;50.954;5.322;2022-10-31T07:47:21;31.20;;;24.30;;
21215;SDS011;10765;50.954;5.322;2022-10-31T07:49:49;29.43;;;22.20;;
21215;SDS011;10765;50.954;5.322;2022-10-31T07:52:16;25.63;;;22.10;;
21215;SDS011;10765;50.954;5.322;2022-10-31T07:54:43;24.33;;;20.93;;
21215;SDS011;10765;50.954;5.322;2022-10-31T07:57:10;24.60;;;19.97;;
21215;SDS011;10765;50.954;5.322;2022-10-31T07:59:36;23.67;;;20.07;;
21215;SDS011;10765;50.954;5.322;2022-10-31T08:02:03;23.27;;;20.77;;
21215;SDS011;10765;50.954;5.322;2022-10-31T08:04:30;38.10;;;22.33;;
21215;SDS011;10765;50.954;5.322;2022-10-31T08:06:59;22.60;;;20.20;;
21215;SDS011;10765;50.954;5.322;2022-10-31T08:09:28;23.97;;;19.40;;
21215;SDS011;10765;50.954;5.322;2022-10-31T08:11:55;22.33;;;18.83;;
21215;SDS011;10765;50.954;5.322;2022-10-31T08:14:22;24.50;;;19.30;;
21215;SDS011;10765;50.954;5.322;2022-10-31T08:16:52;21.37;;;18.47;;
21215;SDS011;10765;50.954;5.322;2022-10-31T08:19:19;19.70;;;15.90;;
21215;SDS011;10765;50.954;5.322;2022-10-31T08:21:46;24.53;;;16.13;;
21215;SDS011;10765;50.954;5.322;2022-10-31T08:24:17;17.47;;;14.27;;
21215;SDS011;10765;50.954;5.322;2022-10-31T08:26:44;17.17;;;13.93;;
21215;SDS011;10765;50.954;5.322;2022-10-31T08:29:11;15.93;;;13.87;;
21215;SDS011;10765;50.954;5.322;2022-10-31T08:31:40;19.47;;;13.93;;
21215;SDS011;10765;50.954;5.322;2022-10-31T08:34:08;20.37;;;14.20;;
21215;SDS011;10765;50.954;5.322;2022-10-31T08:36:34;19.50;;;14.80;;
21215;SDS011;10765;50.954;5.322;2022-10-31T08:39:02;17.37;;;14.07;;
21215;SDS011;10765;50.954;5.322;2022-10-31T08:41:30;17.73;;;13.97;;
21215;SDS011;10765;50.954;5.322;2022-10-31T08:43:57;18.87;;;14.10;;
21215;SDS011;10765;50.954;5.322;2022-10-31T08:46:24;16.00;;;13.50;;
21215;SDS011;10765;50.954;5.322;2022-10-31T08:48:51;17.37;;;14.60;;
21215;SDS011;10765;50.954;5.322;2022-10-31T08:51:18;17.87;;;15.30;;
21215;SDS011;10765;50.954;5.322;2022-10-31T08:53:45;17.73;;;14.30;;
21215;SDS011;10765;50.954;5.322;2022-10-31T08:56:12;19.43;;;15.23;;
21215;SDS011;10765;50.954;5.322;2022-10-31T08:58:40;16.73;;;14.33;;
21215;SDS011;10765;50.954;5.322;2022-10-31T09:01:07;17.73;;;15.43;;
21215;SDS011;10765;50.954;5.322;2022-10-31T09:03:33;20.17;;;16.40;;
21215;SDS011;10765;50.954;5.322;2022-10-31T09:06:01;21.60;;;16.80;;
21215;SDS011;10765;50.954;5.322;2022-10-31T09:08:31;20.60;;;17.33;;
21215;SDS011;10765;50.954;5.322;2022-10-31T09:10:58;22.20;;;17.13;;
21215;SDS011;10765;50.954;5.322;2022-10-31T09:13:26;21.13;;;17.47;;
21215;SDS011;10765;50.954;5.322;2022-10-31T09:15:55;21.50;;;17.43;;
21215;SDS011;10765;50.954;5.322;2022-10-31T09:18:23;19.73;;;15.77;;
21215;SDS011;10765;50.954;5.322;2022-10-31T09:20:52;22.03;;;17.57;;
21215;SDS011;10765;50.954;5.322;2022-10-31T09:23:20;19.27;;;16.50;;
21215;SDS011;10765;50.954;5.322;2022-10-31T09:25:48;21.33;;;16.70;;
21215;SDS011;10765;50.954;5.322;2022-10-31T09:28:16;23.57;;;17.63;;
21215;SDS011;10765;50.954;5.322;2022-10-31T09:30:45;21.20;;;16.83;;
21215;SDS011;10765;50.954;5.322;2022-10-31T09:33:15;23.00;;;17.10;;
21215;SDS011;10765;50.954;5.322;2022-10-31T09:35:42;21.00;;;16.87;;
21215;SDS011;10765;50.954;5.322;2022-10-31T09:38:10;21.80;;;17.57;;
21215;SDS011;10765;50.954;5.322;2022-10-31T09:40:40;27.07;;;18.07;;
21215;SDS011;10765;50.954;5.322;2022-10-31T09:43:11;23.33;;;19.30;;
21215;SDS011;10765;50.954;5.322;2022-10-31T09:45:43;22.57;;;18.70;;
21215;SDS011;10765;50.954;5.322;2022-10-31T09:48:26;22.77;;;18.63;;
21215;SDS011;10765;50.954;5.322;2022-10-31T09:51:03;25.37;;;18.77;;
21215;SDS011;10765;50.954;5.322;2022-10-31T09:53:34;24.77;;;19.33;;
21215;SDS011;10765;50.954;5.322;2022-10-31T09:56:06;36.67;;;18.87;;
21215;SDS011;10765;50.954;5.322;2022-10-31T09:58:39;22.87;;;18.27;;
21215;SDS011;10765;50.954;5.322;2022-10-31T10:01:27;23.13;;;16.77;;
21215;SDS011;10765;50.954;5.322;2022-10-31T10:04:01;21.83;;;16.80;;
21215;SDS011;10765;50.954;5.322;2022-10-31T10:06:35;17.97;;;15.87;;
21215;SDS011;10765;50.954;5.322;2022-10-31T10:09:07;20.47;;;16.60;;
21215;SDS011;10765;50.954;5.322;2022-10-31T10:11:40;19.60;;;15.90;;
21215;SDS011;10765;50.954;5.322;2022-10-31T10:14:20;21.30;;;16.77;;
21215;SDS011;10765;50.954;5.322;2022-10-31T10:17:03;20.13;;;16.47;;
21215;SDS011;10765;50.954;5.322;2022-10-31T10:19:50;20.77;;;16.53;;
21215;SDS011;10765;50.954;5.322;2022-10-31T10:22:29;20.73;;;16.23;;
21215;SDS011;10765;50.954;5.322;2022-10-31T10:25:07;25.30;;;16.57;;
21215;SDS011;10765;50.954;5.322;2022-10-31T10:27:45;21.90;;;16.13;;
21215;SDS011;10765;50.954;5.322;2022-10-31T10:30:16;20.73;;;16.07;;
21215;SDS011;10765;50.954;5.322;2022-10-31T10:32:56;19.67;;;15.47;;
21215;SDS011;10765;50.954;5.322;2022-10-31T10:35:27;20.00;;;15.00;;
21215;SDS011;10765;50.954;5.322;2022-10-31T10:37:58;19.27;;;16.17;;
21215;SDS011;10765;50.954;5.322;2022-10-31T10:40:30;22.67;;;16.10;;
21215;SDS011;10765;50.954;5.322;2022-10-31T10:43:07;19.27;;;16.87;;
21215;SDS011;10765;50.954;5.322;2022-10-31T10:45:48;21.80;;;15.60;;
21215;SDS011;10765;50.954;5.322;2022-10-31T10:48:39;20.97;;;16.10;;
21215;SDS011;10765;50.954;5.322;2022-10-31T10:51:18;21.17;;;15.73;;
21215;SDS011;10765;50.954;5.322;2022-10-31T10:53:51;21.43;;;15.57;;
21215;SDS011;10765;50.954;5.322;2022-10-31T10:56:33;18.53;;;14.97;;
21215;SDS011;10765;50.954;5.322;2022-10-31T10:59:08;19.53;;;14.43;;
21215;SDS011;10765;50.954;5.322;2022-10-31T11:01:38;17.83;;;14.10;;
21215;SDS011;10765;50.954;5.322;2022-10-31T11:04:13;18.97;;;14.10;;
21215;SDS011;10765;50.954;5.322;2022-10-31T11:06:59;15.87;;;14.03;;
21215;SDS011;10765;50.954;5.322;2022-10-31T11:09:27;24.00;;;14.53;;
21215;SDS011;10765;50.954;5.322;2022-10-31T11:11:55;19.97;;;14.30;;
21215;SDS011;10765;50.954;5.322;2022-10-31T11:14:23;19.03;;;13.77;;
21215;SDS011;10765;50.954;5.322;2022-10-31T11:16:52;18.43;;;13.57;;
21215;SDS011;10765;50.954;5.322;2022-10-31T11:19:22;18.53;;;14.20;;
21215;SDS011;10765;50.954;5.322;2022-10-31T11:21:51;22.27;;;14.23;;
21215;SDS011;10765;50.954;5.322;2022-10-31T11:24:21;21.10;;;12.53;;
21215;SDS011;10765;50.954;5.322;2022-10-31T11:26:50;17.53;;;12.37;;
21215;SDS011;10765;50.954;5.322;2022-10-31T11:29:20;16.10;;;11.67;;
21215;SDS011;10765;50.954;5.322;2022-10-31T11:31:50;19.23;;;11.10;;
21215;SDS011;10765;50.954;5.322;2022-10-31T11:34:26;15.17;;;11.80;;
21215;SDS011;10765;50.954;5.322;2022-10-31T11:36:56;17.23;;;11.27;;
21215;SDS011;10765;50.954;5.322;2022-10-31T11:39:30;13.20;;;10.47;;
21215;SDS011;10765;50.954;5.322;2022-10-31T11:41:59;13.90;;;10.60;;
21215;SDS011;10765;50.954;5.322;2022-10-31T11:44:28;15.27;;;10.67;;
21215;SDS011;10765;50.954;5.322;2022-10-31T11:46:58;16.23;;;10.90;;
21215;SDS011;10765;50.954;5.322;2022-10-31T11:49:28;15.13;;;9.70;;
21215;SDS011;10765;50.954;5.322;2022-10-31T11:51:58;12.80;;;10.23;;
21215;SDS011;10765;50.954;5.322;2022-10-31T11:54:32;14.33;;;10.33;;
21215;SDS011;10765;50.954;5.322;2022-10-31T11:57:21;13.37;;;9.03;;
21215;SDS011;10765;50.954;5.322;2022-10-31T11:59:53;14.37;;;9.30;;
21215;SDS011;10765;50.954;5.322;2022-10-31T12:02:21;17.40;;;9.63;;
21215;SDS011;10765;50.954;5.322;2022-10-31T12:04:50;14.23;;;9.50;;
21215;SDS011;10765;50.954;5.322;2022-10-31T12:07:22;11.63;;;9.50;;
21215;SDS011;10765;50.954;5.322;2022-10-31T12:09:50;16.63;;;8.80;;
21215;SDS011;10765;50.954;5.322;2022-10-31T12:17:59;13.50;;;9.00;;
21215;SDS011;10765;50.954;5.322;2022-10-31T12:20:48;13.33;;;8.90;;
21215;SDS011;10765;50.954;5.322;2022-10-31T12:23:25;14.83;;;8.83;;
21215;SDS011;10765;50.954;5.322;2022-10-31T12:26:07;16.20;;;9.17;;
21215;SDS011;10765;50.954;5.322;2022-10-31T12:28:44;13.27;;;8.67;;
21215;SDS011;10765;50.954;5.322;2022-10-31T12:31:32;11.97;;;7.93;;
21215;SDS011;10765;50.954;5.322;2022-10-31T12:34:18;17.07;;;8.07;;
21215;SDS011;10765;50.954;5.322;2022-10-31T12:37:07;11.37;;;7.70;;
21215;SDS011;10765;50.954;5.322;2022-10-31T12:39:42;16.50;;;8.60;;
21215;SDS011;10765;50.954;5.322;2022-10-31T12:42:19;11.67;;;7.90;;
21215;SDS011;10765;50.954;5.322;2022-10-31T12:44:58;12.80;;;8.20;;
21215;SDS011;10765;50.954;5.322;2022-10-31T12:47:52;14.10;;;8.13;;
21215;SDS011;10765;50.954;5.322;2022-10-31T12:50:39;11.37;;;7.93;;
21215;SDS011;10765;50.954;5.322;2022-10-31T12:53:21;12.10;;;8.13;;
21215;SDS011;10765;50.954;5.322;2022-10-31T12:56:14;11.80;;;8.43;;
21215;SDS011;10765;50.954;5.322;2022-10-31T12:58:56;11.63;;;7.73;;
21215;SDS011;10765;50.954;5.322;2022-10-31T13:01:29;12.13;;;8.40;;
21215;SDS011;10765;50.954;5.322;2022-10-31T13:04:01;13.80;;;8.53;;
21215;SDS011;10765;50.954;5.322;2022-10-31T13:06:32;14.40;;;8.67;;
21215;SDS011;10765;50.954;5.322;2022-10-31T13:09:05;11.77;;;8.80;;
21215;SDS011;10765;50.954;5.322;2022-10-31T13:11:36;15.57;;;9.23;;
21215;SDS011;10765;50.954;5.322;2022-10-31T13:14:09;17.03;;;9.43;;
21215;SDS011;10765;50.954;5.322;2022-10-31T13:16:40;14.07;;;8.83;;
21215;SDS011;10765;50.954;5.322;2022-10-31T13:19:12;13.07;;;8.47;;
21215;SDS011;10765;50.954;5.322;2022-10-31T13:21:45;14.70;;;8.50;;
21215;SDS011;10765;50.954;5.322;2022-10-31T13:24:20;13.67;;;9.40;;
21215;SDS011;10765;50.954;5.322;2022-10-31T13:26:52;13.10;;;8.90;;
21215;SDS011;10765;50.954;5.322;2022-10-31T13:29:23;13.03;;;10.03;;
21215;SDS011;10765;50.954;5.322;2022-10-31T13:31:53;11.87;;;8.97;;
21215;SDS011;10765;50.954;5.322;2022-10-31T13:34:23;14.00;;;9.97;;
21215;SDS011;10765;50.954;5.322;2022-10-31T13:36:57;16.00;;;9.70;;
21215;SDS011;10765;50.954;5.322;2022-10-31T13:39:32;14.87;;;9.83;;
21215;SDS011;10765;50.954;5.322;2022-10-31T13:42:32;16.27;;;9.77;;
21215;SDS011;10765;50.954;5.322;2022-10-31T13:45:13;14.63;;;9.40;;
21215;SDS011;10765;50.954;5.322;2022-10-31T13:47:41;15.40;;;9.53;;
21215;SDS011;10765;50.954;5.322;2022-10-31T13:50:18;15.57;;;10.33;;
21215;SDS011;10765;50.954;5.322;2022-10-31T13:52:47;14.37;;;9.40;;
21215;SDS011;10765;50.954;5.322;2022-10-31T13:58:04;17.50;;;10.60;;
21215;SDS011;10765;50.954;5.322;2022-10-31T14:00:47;14.80;;;9.83;;
21215;SDS011;10765;50.954;5.322;2022-10-31T14:03:30;13.20;;;9.63;;
21215;SDS011;10765;50.954;5.322;2022-10-31T14:06:01;16.70;;;10.23;;
21215;SDS011;10765;50.954;5.322;2022-10-31T14:08:29;15.60;;;9.93;;
21215;SDS011;10765;50.954;5.322;2022-10-31T14:10:59;19.13;;;11.10;;
21215;SDS011;10765;50.954;5.322;2022-10-31T14:13:28;16.03;;;10.87;;
21215;SDS011;10765;50.954;5.322;2022-10-31T14:16:00;15.07;;;10.97;;
21215;SDS011;10765;50.954;5.322;2022-10-31T14:18:30;15.33;;;10.80;;
21215;SDS011;10765;50.954;5.322;2022-10-31T14:20:58;17.70;;;11.07;;
21215;SDS011;10765;50.954;5.322;2022-10-31T14:23:35;13.83;;;10.67;;
21215;SDS011;10765;50.954;5.322;2022-10-31T14:26:29;16.53;;;10.77;;
21215;SDS011;10765;50.954;5.322;2022-10-31T14:28:59;14.93;;;10.17;;
21215;SDS011;10765;50.954;5.322;2022-10-31T14:31:32;17.53;;;11.17;;
21215;SDS011;10765;50.954;5.322;2022-10-31T14:36:50;13.60;;;9.90;;
21215;SDS011;10765;50.954;5.322;2022-10-31T14:39:34;19.00;;;10.37;;
21215;SDS011;10765;50.954;5.322;2022-10-31T14:42:14;17.80;;;9.80;;
21215;SDS011;10765;50.954;5.322;2022-10-31T14:44:58;18.43;;;10.03;;
21215;SDS011;10765;50.954;5.322;2022-10-31T14:47:47;18.13;;;9.90;;
21215;SDS011;10765;50.954;5.322;2022-10-31T14:50:24;14.10;;;9.90;;
21215;SDS011;10765;50.954;5.322;2022-10-31T14:53:03;17.50;;;9.13;;
21215;SDS011;10765;50.954;5.322;2022-10-31T14:55:32;15.53;;;9.80;;
21215;SDS011;10765;50.954;5.322;2022-10-31T14:58:06;14.03;;;9.10;;
21215;SDS011;10765;50.954;5.322;2022-10-31T15:00:34;15.63;;;9.33;;
21215;SDS011;10765;50.954;5.322;2022-10-31T15:03:10;19.03;;;9.33;;
21215;SDS011;10765;50.954;5.322;2022-10-31T15:05:45;14.17;;;9.27;;